createdAt,value
2022-10-07T00:00:39.485Z,10.6
2022-10-07T00:01:43.839Z,10.7
2022-10-07T00:02:48.543Z,10.7
2022-10-07T00:03:53.129Z,10.6
2022-10-07T00:04:57.669Z,10.7
2022-10-07T00:06:02.150Z,10.7
2022-10-07T00:07:12.067Z,10.7
2022-10-07T00:08:22.022Z,10.7
2022-10-07T00:09:26.548Z,10.6
2022-10-07T00:10:31.047Z,10.6
2022-10-07T00:11:38.536Z,10.6
2022-10-07T00:14:32.917Z,10.5
2022-10-07T00:15:37.468Z,10.6
2022-10-07T00:16:45.767Z,10.6
2022-10-07T00:17:50.315Z,10.5
2022-10-07T00:18:55.296Z,10.5
2022-10-07T00:19:59.904Z,10.5
2022-10-07T00:21:04.751Z,10.5
2022-10-07T00:22:13.953Z,10.5
2022-10-07T00:23:23.342Z,10.5
2022-10-07T00:24:32.754Z,10.5
2022-10-07T00:25:37.587Z,10.5
2022-10-07T00:26:42.190Z,10.5
2022-10-07T00:27:47.032Z,10.5
2022-10-07T00:28:51.100Z,10.5
2022-10-07T00:29:55.763Z,10.4
2022-10-07T00:31:00.278Z,10.4
2022-10-07T00:32:04.747Z,10.3
2022-10-07T00:33:09.232Z,10.3
2022-10-07T00:34:13.660Z,10.2
2022-10-07T00:35:18.462Z,10.2
2022-10-07T00:36:22.992Z,10.2
2022-10-07T00:37:29.749Z,10.2
2022-10-07T00:38:34.153Z,10.2
2022-10-07T00:42:29.018Z,10.2
2022-10-07T00:43:37.573Z,10.1
2022-10-07T00:44:42.277Z,10.1
2022-10-07T00:45:46.595Z,10.1
2022-10-07T00:46:50.966Z,10.1
2022-10-07T00:47:58.678Z,10.1
2022-10-07T00:49:03.199Z,10.1
2022-10-07T00:50:08.002Z,10.1
2022-10-07T00:51:12.241Z,10.1
2022-10-07T00:52:16.534Z,10.1
2022-10-07T00:53:20.694Z,10.1
2022-10-07T00:54:26.957Z,10.1
2022-10-07T00:55:31.354Z,10.1
2022-10-07T00:56:38.165Z,10.1
2022-10-07T00:57:42.858Z,10.1
2022-10-07T00:58:46.945Z,10.1
2022-10-07T00:59:52.597Z,10.1
2022-10-07T01:00:57.275Z,10.1
2022-10-07T01:02:04.199Z,10
2022-10-07T01:03:08.429Z,10
2022-10-07T01:04:12.900Z,10
2022-10-07T01:05:17.363Z,10.1
2022-10-07T01:06:21.927Z,10.1
2022-10-07T01:09:16.264Z,10.1
2022-10-07T01:13:11.175Z,10
2022-10-07T01:14:16.316Z,10
2022-10-07T01:15:30.955Z,10
2022-10-07T01:16:40.287Z,10
2022-10-07T01:17:52.140Z,10
2022-10-07T01:19:01.424Z,9.9
2022-10-07T01:20:10.785Z,9.8
2022-10-07T01:21:28.024Z,9.8
2022-10-07T01:22:42.532Z,9.8
2022-10-07T01:23:46.845Z,9.8
2022-10-07T01:25:01.569Z,9.8
2022-10-07T01:26:14.633Z,9.8
2022-10-07T01:27:29.520Z,9.8
2022-10-07T01:28:34.210Z,9.7
2022-10-07T01:29:38.496Z,9.8
2022-10-07T01:30:42.912Z,9.7
2022-10-07T01:31:47.280Z,9.8
2022-10-07T01:32:56.904Z,9.8
2022-10-07T01:34:01.238Z,9.7
2022-10-07T01:35:05.420Z,9.8
2022-10-07T01:36:12.432Z,9.8
2022-10-07T01:37:16.736Z,9.7
2022-10-07T01:38:21.172Z,9.7
2022-10-07T01:39:25.522Z,9.7
2022-10-07T01:40:34.589Z,9.7
2022-10-07T01:41:43.950Z,9.7
2022-10-07T01:42:48.536Z,9.7
2022-10-07T01:43:52.959Z,9.6
2022-10-07T01:44:57.188Z,9.6
2022-10-07T01:46:01.483Z,9.6
2022-10-07T01:47:06.093Z,9.6
2022-10-07T01:48:10.833Z,9.6
2022-10-07T01:49:16.069Z,9.6
2022-10-07T01:50:20.361Z,9.6
2022-10-07T01:51:24.513Z,9.6
2022-10-07T01:52:28.845Z,9.7
2022-10-07T01:53:38.161Z,9.7
2022-10-07T01:54:47.541Z,9.7
2022-10-07T01:55:59.555Z,9.7
2022-10-07T01:57:11.904Z,9.7
2022-10-07T01:58:26.348Z,9.7
2022-10-07T01:59:40.778Z,9.7
2022-10-07T02:00:52.981Z,9.7
2022-10-07T02:01:57.335Z,9.7
2022-10-07T02:03:13.694Z,9.7
2022-10-07T02:04:28.129Z,9.7
2022-10-07T02:05:32.596Z,9.6
2022-10-07T02:08:32.360Z,9.6
2022-10-07T02:09:36.941Z,9.5
2022-10-07T02:10:46.697Z,9.5
2022-10-07T02:12:00.669Z,9.5
2022-10-07T02:13:13.052Z,9.4
2022-10-07T02:14:17.737Z,9.4
2022-10-07T02:15:21.985Z,9.4
2022-10-07T02:16:31.425Z,9.4
2022-10-07T02:17:41.829Z,9.4
2022-10-07T02:18:53.310Z,9.3
2022-10-07T02:19:57.573Z,9.4
2022-10-07T02:21:03.009Z,9.4
2022-10-07T02:22:07.932Z,9.3
2022-10-07T02:23:14.624Z,9.3
2022-10-07T02:24:18.941Z,9.3
2022-10-07T02:25:23.777Z,9.3
2022-10-07T02:26:28.084Z,9.3
2022-10-07T02:27:36.431Z,9.4
2022-10-07T02:28:40.841Z,9.4
2022-10-07T02:29:45.086Z,9.4
2022-10-07T02:30:49.427Z,9.4
2022-10-07T02:31:53.818Z,9.4
2022-10-07T02:32:58.018Z,9.4
2022-10-07T02:34:02.329Z,9.4
2022-10-07T02:35:10.482Z,9.3
2022-10-07T02:36:24.213Z,9.3
2022-10-07T02:37:28.565Z,9.3
2022-10-07T02:38:32.853Z,9.2
2022-10-07T02:39:37.105Z,9.2
2022-10-07T02:40:41.438Z,9.2
2022-10-07T02:41:56.524Z,9.2
2022-10-07T02:43:08.490Z,9.2
2022-10-07T02:44:20.505Z,9.2
2022-10-07T02:45:38.117Z,9.1
2022-10-07T02:46:45.603Z,9.1
2022-10-07T02:47:49.720Z,9.1
2022-10-07T02:48:56.612Z,9
2022-10-07T02:51:50.729Z,9.1
2022-10-07T02:52:54.929Z,9.1
2022-10-07T02:54:03.089Z,9.1
2022-10-07T02:55:07.457Z,9.1
2022-10-07T02:56:11.616Z,9.1
2022-10-07T02:57:15.853Z,9.1
2022-10-07T02:58:20.089Z,9.1
2022-10-07T02:59:24.610Z,9.1
2022-10-07T03:00:28.915Z,9.1
2022-10-07T03:01:38.050Z,9.2
2022-10-07T03:02:42.369Z,9.2
2022-10-07T03:03:55.087Z,9.2
2022-10-07T03:04:59.413Z,9.1
2022-10-07T03:06:03.945Z,9.1
2022-10-07T03:07:08.285Z,9.1
2022-10-07T03:09:16.153Z,9
2022-10-07T03:10:20.648Z,9
2022-10-07T03:11:25.140Z,9
2022-10-07T03:12:29.559Z,9
2022-10-07T03:13:36.814Z,9.1
2022-10-07T03:14:41.124Z,9
2022-10-07T03:15:45.359Z,8.9
2022-10-07T03:16:49.698Z,9
2022-10-07T03:17:54.032Z,9.1
2022-10-07T03:19:02.861Z,9
2022-10-07T03:20:07.509Z,9
2022-10-07T03:21:11.935Z,9
2022-10-07T03:22:16.620Z,9
2022-10-07T03:23:20.809Z,9
2022-10-07T03:24:25.995Z,8.9
2022-10-07T03:25:30.228Z,9
2022-10-07T03:26:34.479Z,9
2022-10-07T03:27:38.792Z,9
2022-10-07T03:28:43.231Z,9
2022-10-07T03:29:47.328Z,9
2022-10-07T03:30:51.737Z,9
2022-10-07T03:31:56.087Z,9
2022-10-07T03:33:01.044Z,9
2022-10-07T03:34:05.328Z,8.9
2022-10-07T03:35:13.117Z,8.9
2022-10-07T03:36:17.644Z,8.9
2022-10-07T03:37:21.855Z,8.9
2022-10-07T03:38:26.103Z,8.9
2022-10-07T03:39:33.446Z,8.9
2022-10-07T03:40:37.920Z,8.9
2022-10-07T03:41:42.276Z,8.9
2022-10-07T03:42:48.342Z,8.9
2022-10-07T03:43:53.936Z,8.9
2022-10-07T03:44:58.196Z,8.9
2022-10-07T03:46:02.755Z,8.9
2022-10-07T03:47:10.480Z,8.9
2022-10-07T03:48:11.491Z,9
2022-10-07T03:49:16.132Z,9
2022-10-07T03:50:24.664Z,9
2022-10-07T03:51:28.863Z,9.1
2022-10-07T03:56:12.132Z,9.1
2022-10-07T04:00:55.039Z,9.2
2022-10-07T04:05:43.429Z,9.1
2022-10-07T04:06:57.800Z,9.1
2022-10-07T04:09:59.196Z,9.1
2022-10-07T04:11:03.197Z,9.1
2022-10-07T04:14:36.868Z,9
2022-10-07T04:19:24.935Z,8.8
2022-10-07T04:20:29.193Z,8.8
2022-10-07T04:23:54.387Z,8.8
2022-10-07T04:26:50.392Z,8.8
2022-10-07T04:29:44.021Z,8.7
2022-10-07T04:34:16.899Z,8.7
2022-10-07T04:35:29.436Z,8.7
2022-10-07T04:36:34.548Z,8.7
2022-10-07T04:37:38.797Z,8.7
2022-10-07T04:40:35.598Z,8.7
2022-10-07T04:43:34.235Z,8.8
2022-10-07T04:44:48.395Z,8.8
2022-10-07T04:45:52.808Z,8.8
2022-10-07T04:47:10.270Z,8.9
2022-10-07T04:52:13.498Z,8.8
2022-10-07T04:55:52.348Z,8.7
2022-10-07T05:00:35.456Z,8.5
2022-10-07T05:01:45.695Z,8.5
2022-10-07T05:09:53.031Z,8.6
2022-10-07T05:15:06.167Z,8.7
2022-10-07T05:16:10.592Z,8.7
2022-10-07T05:17:25.287Z,8.8
2022-10-07T05:20:23.667Z,8.8
2022-10-07T05:21:27.789Z,8.8
2022-10-07T05:25:41.460Z,8.9
2022-10-07T05:26:45.474Z,8.9
2022-10-07T05:28:00.254Z,8.9
2022-10-07T05:29:04.965Z,8.9
2022-10-07T05:32:04.643Z,8.9
2022-10-07T05:33:04.240Z,9
2022-10-07T05:37:32.552Z,9.1
2022-10-07T05:42:30.329Z,9.2
2022-10-07T05:43:34.771Z,9.2
2022-10-07T05:53:06.299Z,9.4
2022-10-07T05:59:24.003Z,9.7
2022-10-07T06:08:01.853Z,10
2022-10-07T06:09:05.916Z,10
2022-10-07T06:14:41.470Z,10.2
2022-10-07T06:25:30.214Z,10.4
2022-10-07T06:26:34.609Z,10.4
2022-10-07T06:31:18.055Z,10.4
2022-10-07T06:32:25.398Z,10.5
2022-10-07T06:36:57.014Z,10.5
2022-10-07T06:39:57.455Z,10.6
2022-10-07T06:42:53.163Z,10.7
2022-10-07T06:49:36.395Z,10.7
2022-10-07T06:51:26.438Z,10.7
2022-10-07T06:52:32.272Z,10.8
2022-10-07T06:55:08.597Z,10.9
2022-10-07T06:56:13.287Z,11
2022-10-07T06:57:44.075Z,11
2022-10-07T07:00:12.508Z,11.1
2022-10-07T07:01:16.897Z,11.1
2022-10-07T07:02:26.145Z,11.1
2022-10-07T07:03:32.488Z,11.2
2022-10-07T07:04:46.600Z,11.2
2022-10-07T07:05:54.423Z,11.1
2022-10-07T07:07:00.534Z,11.1
2022-10-07T07:08:05.137Z,11
2022-10-07T07:09:09.273Z,11.1
2022-10-07T07:10:13.394Z,11.2
2022-10-07T07:11:17.449Z,11.3
2022-10-07T07:12:26.774Z,11.3
2022-10-07T07:13:30.773Z,11.4
2022-10-07T07:20:05.529Z,11.5
2022-10-07T07:21:10.585Z,11.6
2022-10-07T07:23:54.749Z,11.6
2022-10-07T07:24:58.821Z,11.5
2022-10-07T07:26:02.951Z,11.5
2022-10-07T07:27:07.122Z,11.6
2022-10-07T07:29:46.421Z,11.8
2022-10-07T07:30:50.597Z,11.9
2022-10-07T07:38:59.853Z,12.1
2022-10-07T07:40:09.825Z,12.3
2022-10-07T07:41:28.996Z,12.3
2022-10-07T07:42:37.998Z,12.3
2022-10-07T07:43:45.521Z,12.4
2022-10-07T07:44:49.669Z,12.5
2022-10-07T07:47:17.995Z,12.5
2022-10-07T07:48:22.040Z,12.5
2022-10-07T07:51:00.629Z,12.6
2022-10-07T07:54:19.214Z,12.9
2022-10-07T07:59:17.372Z,13.2
2022-10-07T08:02:50.856Z,13.3
2022-10-07T08:08:49.131Z,13.6
2022-10-07T08:09:58.706Z,13.7
2022-10-07T08:13:24.611Z,13.6
2022-10-07T08:23:49.028Z,14.4
2022-10-07T08:25:06.341Z,14.4
2022-10-07T08:29:49.361Z,14.8
2022-10-07T08:36:11.816Z,14.9
2022-10-07T08:38:46.684Z,15
2022-10-07T08:39:52.997Z,14.9
2022-10-07T08:41:02.353Z,15
2022-10-07T08:49:02.048Z,15.2
2022-10-07T08:50:06.309Z,15.3
2022-10-07T08:51:17.087Z,15.3
2022-10-07T08:55:21.891Z,15.1
2022-10-07T08:56:35.097Z,15.1
2022-10-07T08:57:39.177Z,15.2
2022-10-07T09:00:23.265Z,15.3
2022-10-07T09:01:30.130Z,15.3
2022-10-07T09:02:42.090Z,15.4
2022-10-07T09:03:56.348Z,15.4
2022-10-07T09:05:08.474Z,15.4
2022-10-07T09:06:17.741Z,15.4
2022-10-07T09:07:31.968Z,15.4
2022-10-07T09:10:58.073Z,15.5
2022-10-07T09:12:15.164Z,15.6
2022-10-07T09:13:38.974Z,15.6
2022-10-07T09:16:08.965Z,15.6
2022-10-07T09:19:31.853Z,15.2
2022-10-07T09:22:25.348Z,15.7
2022-10-07T09:23:32.492Z,15.9
2022-10-07T09:24:36.608Z,16
2022-10-07T09:25:40.605Z,16.1
2022-10-07T09:29:05.405Z,16.5
2022-10-07T09:34:18.229Z,16.6
2022-10-07T09:35:24.811Z,16.7
2022-10-07T09:44:24.938Z,17.3
2022-10-07T09:48:42.229Z,17.8
2022-10-07T09:51:36.058Z,17.8
2022-10-07T09:52:40.777Z,17.8
2022-10-07T09:53:45.049Z,18
2022-10-07T09:54:58.864Z,18
2022-10-07T09:56:13.649Z,18.1
2022-10-07T09:57:19.043Z,18.1
2022-10-07T09:58:28.997Z,17.9
2022-10-07T09:59:33.504Z,18.1
2022-10-07T10:00:37.916Z,18
2022-10-07T10:01:42.316Z,18
2022-10-07T10:02:52.020Z,18.2
2022-10-07T10:03:59.024Z,18.2
2022-10-07T10:05:07.592Z,18.2
2022-10-07T10:06:19.976Z,18.4
2022-10-07T10:07:24.108Z,18.4
2022-10-07T10:08:31.679Z,18.3
2022-10-07T10:09:40.500Z,18.2
2022-10-07T10:10:54.557Z,18.1
2022-10-07T10:13:08.198Z,18.5
2022-10-07T10:14:12.416Z,18.5
2022-10-07T10:15:26.699Z,18.6
2022-10-07T10:16:36.827Z,18.7
2022-10-07T10:17:43.215Z,18.7
2022-10-07T10:18:47.544Z,18.8
2022-10-07T10:19:58.821Z,18.9
2022-10-07T10:21:13.096Z,18.8
2022-10-07T10:22:25.232Z,18.7
2022-10-07T10:23:32.868Z,18.8
2022-10-07T10:24:37.345Z,18.9
2022-10-07T10:25:46.980Z,18.9
2022-10-07T10:27:04.100Z,19
2022-10-07T10:28:13.656Z,19.2
2022-10-07T10:29:23.500Z,19.2
2022-10-07T10:30:35.204Z,19.3
2022-10-07T10:31:39.458Z,19.2
2022-10-07T10:32:52.328Z,19.2
2022-10-07T10:34:07.578Z,19
2022-10-07T10:35:17.293Z,19.2
2022-10-07T10:36:33.681Z,19.3
2022-10-07T10:37:37.833Z,19.3
2022-10-07T10:38:42.380Z,19.4
2022-10-07T10:39:51.781Z,19.2
2022-10-07T10:41:06.644Z,19.3
2022-10-07T10:42:16.511Z,19.4
2022-10-07T10:43:20.728Z,19.5
2022-10-07T10:44:25.082Z,19.6
2022-10-07T10:45:39.362Z,19.6
2022-10-07T10:46:53.658Z,19.7
2022-10-07T10:48:06.318Z,19.8
2022-10-07T10:49:20.725Z,19.9
2022-10-07T10:50:31.381Z,19.9
2022-10-07T10:51:44.191Z,19.9
2022-10-07T10:52:56.317Z,19.8
2022-10-07T10:54:05.461Z,19.7
2022-10-07T10:55:21.577Z,19.8
2022-10-07T10:56:34.636Z,19.9
2022-10-07T10:57:39.296Z,19.9
2022-10-07T10:58:51.361Z,19.9
2022-10-07T11:00:05.806Z,19.9
2022-10-07T11:01:20.451Z,19.9
2022-10-07T11:02:29.682Z,19.9
2022-10-07T11:03:38.781Z,20
2022-10-07T11:04:44.520Z,19.8
2022-10-07T11:05:52.823Z,19.8
2022-10-07T11:06:57.172Z,19.9
2022-10-07T11:08:09.664Z,19.9
2022-10-07T11:09:24.637Z,20
2022-10-07T11:10:35.312Z,20
2022-10-07T11:11:42.316Z,20.1
2022-10-07T11:12:47.685Z,20
2022-10-07T11:13:52.202Z,20.1
2022-10-07T11:15:02.099Z,20.1
2022-10-07T11:16:16.516Z,20.3
2022-10-07T11:17:26.929Z,20.3
2022-10-07T11:18:33.000Z,20.4
2022-10-07T11:19:45.440Z,20.1
2022-10-07T11:20:53.501Z,20.2
2022-10-07T11:21:57.920Z,20.3
2022-10-07T11:23:06.857Z,20.3
2022-10-07T11:24:21.608Z,20.3
2022-10-07T11:25:34.828Z,20.4
2022-10-07T11:26:39.224Z,20.3
2022-10-07T11:27:52.316Z,20.4
2022-10-07T11:28:56.409Z,20.4
2022-10-07T11:30:01.364Z,20.5
2022-10-07T11:31:13.535Z,20.4
2022-10-07T11:32:26.111Z,20.3
2022-10-07T11:35:33.508Z,20.5
2022-10-07T11:36:43.017Z,20.5
2022-10-07T11:37:57.673Z,20.5
2022-10-07T11:39:13.680Z,20.6
2022-10-07T11:40:17.888Z,20.7
2022-10-07T11:41:22.472Z,20.6
2022-10-07T11:42:32.648Z,20.7
2022-10-07T11:43:39.948Z,20.6
2022-10-07T11:44:44.353Z,20.7
2022-10-07T11:45:55.232Z,20.7
2022-10-07T11:48:54.602Z,20.8
2022-10-07T11:50:06.570Z,20.8
2022-10-07T11:51:14.663Z,20.6
2022-10-07T11:52:24.048Z,20.7
2022-10-07T11:53:28.555Z,20.8
2022-10-07T11:56:25.188Z,20.8
2022-10-07T11:57:29.577Z,20.7
2022-10-07T11:58:33.844Z,20.6
2022-10-07T11:59:38.497Z,20.6
2022-10-07T12:00:46.500Z,20.5
2022-10-07T12:01:51.503Z,20.6
2022-10-07T12:02:55.978Z,20.6
2022-10-07T12:04:05.456Z,20.6
2022-10-07T12:05:19.940Z,20.8
2022-10-07T12:06:34.638Z,20.9
2022-10-07T12:07:39.309Z,21
2022-10-07T12:10:36.229Z,20.9
2022-10-07T12:11:41.541Z,20.8
2022-10-07T12:12:45.956Z,20.8
2022-10-07T12:13:53.371Z,20.8
2022-10-07T12:14:59.963Z,20.7
2022-10-07T12:16:07.005Z,20.8
2022-10-07T12:17:21.871Z,20.7
2022-10-07T12:21:52.200Z,20.7
2022-10-07T12:24:54.577Z,20.7
2022-10-07T12:26:09.297Z,20.6
2022-10-07T12:27:23.775Z,20.8
2022-10-07T12:28:28.031Z,20.8
2022-10-07T12:29:32.167Z,20.7
2022-10-07T12:30:41.703Z,20.7
2022-10-07T12:31:51.087Z,20.8
2022-10-07T12:32:55.319Z,20.8
2022-10-07T12:34:00.107Z,20.8
2022-10-07T12:36:56.994Z,20.8
2022-10-07T12:38:11.388Z,20.8
2022-10-07T12:39:20.727Z,20.9
2022-10-07T12:40:28.296Z,20.8
2022-10-07T12:41:35.406Z,20.7
2022-10-07T12:42:36.803Z,20.9
2022-10-07T12:43:43.307Z,21
2022-10-07T12:44:52.607Z,21
2022-10-07T12:45:58.570Z,21.1
2022-10-07T12:50:27.203Z,21.2
2022-10-07T12:53:21.194Z,21
2022-10-07T12:54:26.028Z,21
2022-10-07T12:55:38.324Z,21.1
2022-10-07T12:56:42.692Z,21.1
2022-10-07T12:57:47.031Z,21.1
2022-10-07T12:58:51.167Z,21.1
2022-10-07T13:01:55.263Z,21.1
2022-10-07T13:03:02.260Z,21.1
2022-10-07T13:04:16.787Z,21
2022-10-07T13:05:24.711Z,21.1
2022-10-07T13:06:36.825Z,21.1
2022-10-07T13:07:51.459Z,21.1
2022-10-07T13:09:06.188Z,21
2022-10-07T13:10:17.385Z,21
2022-10-07T13:11:31.871Z,21
2022-10-07T13:12:44.473Z,20.9
2022-10-07T13:13:54.727Z,20.7
2022-10-07T13:15:07.036Z,20.8
2022-10-07T13:16:16.858Z,20.6
2022-10-07T13:17:26.331Z,20.8
2022-10-07T13:18:36.295Z,20.9
2022-10-07T13:19:40.832Z,20.9
2022-10-07T13:20:52.696Z,21
2022-10-07T13:22:01.283Z,20.9
2022-10-07T13:23:13.424Z,20.9
2022-10-07T13:24:22.243Z,21
2022-10-07T13:25:29.173Z,21
2022-10-07T13:26:33.711Z,21
2022-10-07T13:29:32.593Z,20.9
2022-10-07T13:30:36.925Z,20.9
2022-10-07T13:35:20.565Z,20.8
2022-10-07T13:36:30.396Z,20.9
2022-10-07T13:40:58.863Z,20.8
2022-10-07T13:42:15.983Z,20.9
2022-10-07T13:46:42.450Z,21
2022-10-07T13:55:42.269Z,20.9
2022-10-07T13:59:44.989Z,20.8
2022-10-07T14:00:49.468Z,20.8
2022-10-07T14:05:22.591Z,20.6
2022-10-07T14:08:31.320Z,20.7
2022-10-07T14:09:35.470Z,20.6
2022-10-07T14:10:49.722Z,20.6
2022-10-07T14:14:21.324Z,20.6
2022-10-07T14:21:18.226Z,20.5
2022-10-07T14:22:22.476Z,20.4
2022-10-07T14:23:35.895Z,20.4
2022-10-07T14:24:40.283Z,20.4
2022-10-07T14:27:34.763Z,20.4
2022-10-07T14:28:39.087Z,20.4
2022-10-07T14:31:33.327Z,20.3
2022-10-07T14:32:42.961Z,20.4
2022-10-07T14:33:57.276Z,20.4
2022-10-07T14:35:16.966Z,20.4
2022-10-07T14:36:21.545Z,20.3
2022-10-07T14:37:29.670Z,20.3
2022-10-07T14:38:30.170Z,20.3
2022-10-07T14:39:34.513Z,20.3
2022-10-07T14:40:41.592Z,20.2
2022-10-07T14:41:45.912Z,20.2
2022-10-07T14:42:50.321Z,20.2
2022-10-07T14:43:54.698Z,20.3
2022-10-07T14:44:58.997Z,20.2
2022-10-07T14:46:03.470Z,20.2
2022-10-07T14:47:13.649Z,20.2
2022-10-07T14:48:17.949Z,20.2
2022-10-07T14:49:22.918Z,20.2
2022-10-07T14:50:28.709Z,20.2
2022-10-07T14:51:34.415Z,20.2
2022-10-07T14:52:43.704Z,20.2
2022-10-07T14:53:46.098Z,20.1
2022-10-07T14:54:52.794Z,20.1
2022-10-07T14:56:00.213Z,20.1
2022-10-07T14:57:06.557Z,20.1
2022-10-07T14:58:23.725Z,20.1
2022-10-07T14:59:28.292Z,20.1
2022-10-07T15:00:39.580Z,20
2022-10-07T15:01:41.220Z,20
2022-10-07T15:02:45.904Z,20
2022-10-07T15:03:49.873Z,20
2022-10-07T15:04:54.548Z,20
2022-10-07T15:05:58.877Z,20
2022-10-07T15:07:03.180Z,20
2022-10-07T15:08:07.388Z,20
2022-10-07T15:09:11.672Z,20
2022-10-07T15:10:16.594Z,20
2022-10-07T15:11:21.492Z,19.9
2022-10-07T15:12:25.813Z,19.9
2022-10-07T15:13:30.154Z,19.9
2022-10-07T15:14:34.610Z,19.9
2022-10-07T15:15:38.968Z,19.9
2022-10-07T15:16:43.593Z,19.8
2022-10-07T15:17:48.115Z,19.8
2022-10-07T15:18:53.232Z,19.8
2022-10-07T15:20:01.980Z,19.8
2022-10-07T15:21:09.540Z,19.8
2022-10-07T15:22:13.972Z,19.7
2022-10-07T15:23:19.660Z,19.7
2022-10-07T15:24:25.132Z,19.7
2022-10-07T15:25:29.652Z,19.7
2022-10-07T15:26:34.053Z,19.7
2022-10-07T15:27:38.688Z,19.6
2022-10-07T15:28:43.088Z,19.6
2022-10-07T15:29:47.785Z,19.6
2022-10-07T15:30:52.043Z,19.5
2022-10-07T15:32:05.509Z,19.5
2022-10-07T15:33:14.029Z,19.5
2022-10-07T15:34:18.740Z,19.4
2022-10-07T15:35:23.193Z,19.4
2022-10-07T15:36:29.878Z,19.4
2022-10-07T15:37:35.676Z,19.4
2022-10-07T15:38:40.184Z,19.3
2022-10-07T15:39:44.664Z,19.3
2022-10-07T15:40:49.117Z,19.3
2022-10-07T15:41:56.224Z,19.2
2022-10-07T15:43:01.590Z,19.2
2022-10-07T15:44:06.209Z,19.2
2022-10-07T15:45:13.132Z,19.1
2022-10-07T15:46:18.102Z,19.1
2022-10-07T15:47:22.701Z,19
2022-10-07T15:48:26.996Z,19
2022-10-07T15:49:31.160Z,19
2022-10-07T15:50:35.605Z,19
2022-10-07T15:51:40.158Z,18.9
2022-10-07T15:52:44.699Z,18.9
2022-10-07T15:53:48.679Z,18.9
2022-10-07T15:54:56.601Z,18.9
2022-10-07T15:56:01.877Z,18.9
2022-10-07T15:57:07.444Z,18.8
2022-10-07T15:58:11.832Z,18.8
2022-10-07T15:59:16.853Z,18.8
2022-10-07T16:00:21.744Z,18.8
2022-10-07T16:01:26.607Z,18.7
2022-10-07T16:02:33.709Z,18.7
2022-10-07T16:03:38.004Z,18.7
2022-10-07T16:04:45.608Z,18.6
2022-10-07T16:05:51.376Z,18.6
2022-10-07T16:06:58.368Z,18.6
2022-10-07T16:08:02.874Z,18.5
2022-10-07T16:09:07.381Z,18.4
2022-10-07T16:10:13.096Z,18.4
2022-10-07T16:11:16.279Z,18.4
2022-10-07T16:12:20.652Z,18.3
2022-10-07T16:13:25.308Z,18.3
2022-10-07T16:14:29.977Z,18.3
2022-10-07T16:15:34.923Z,18.3
2022-10-07T16:16:39.388Z,18.3
2022-10-07T16:17:44.324Z,18.2
2022-10-07T16:18:49.031Z,18.2
2022-10-07T16:19:53.273Z,18.2
2022-10-07T16:20:57.836Z,18.2
2022-10-07T16:22:05.370Z,18.2
2022-10-07T16:23:10.085Z,18.1
2022-10-07T16:24:14.276Z,18.1
2022-10-07T16:25:18.945Z,18.1
2022-10-07T16:26:23.324Z,18
2022-10-07T16:27:27.696Z,18
2022-10-07T16:28:32.546Z,18
2022-10-07T16:29:42.238Z,18
2022-10-07T16:30:52.401Z,17.9
2022-10-07T16:31:58.759Z,17.9
2022-10-07T16:33:04.497Z,17.9
2022-10-07T16:34:10.964Z,17.8
2022-10-07T16:35:19.856Z,17.8
2022-10-07T16:36:24.712Z,17.8
2022-10-07T16:37:29.472Z,17.7
2022-10-07T16:38:34.931Z,17.7
2022-10-07T16:43:38.184Z,17.5
2022-10-07T16:48:37.188Z,17.3
2022-10-07T16:53:30.104Z,17.1
2022-10-07T16:58:00.208Z,17.1
2022-10-07T17:02:43.061Z,16.9
2022-10-07T17:07:25.877Z,16.7
2022-10-07T17:12:58.602Z,16.6
2022-10-07T17:16:32.394Z,16.5
2022-10-07T17:21:15.214Z,16.3
2022-10-07T17:26:29.004Z,16.2
2022-10-07T17:27:33.315Z,16.2
2022-10-07T17:36:16.714Z,16
2022-10-07T17:37:20.964Z,16
2022-10-07T17:40:46.471Z,15.9
2022-10-07T17:45:29.477Z,15.8
2022-10-07T17:46:36.520Z,15.8
2022-10-07T17:54:47.080Z,15.8
2022-10-07T17:59:30.931Z,15.7
2022-10-07T18:16:25.688Z,15.5
2022-10-07T18:21:11.870Z,15.5
2022-10-07T18:26:44.798Z,15.5
2022-10-07T18:32:53.080Z,15.3
2022-10-07T18:37:36.422Z,15.2
2022-10-07T18:42:59.115Z,15.2
2022-10-07T18:47:57.317Z,15.2
2022-10-07T18:52:27.594Z,15.2
2022-10-07T18:57:21.622Z,15.1
2022-10-07T19:02:04.898Z,15.1
2022-10-07T19:06:48.006Z,15
2022-10-07T19:11:30.790Z,15
2022-10-07T19:17:03.585Z,14.9
2022-10-07T19:25:20.609Z,14.7
2022-10-07T19:26:29.757Z,14.6
2022-10-07T19:37:48.558Z,14.4
2022-10-07T19:38:57.270Z,14.4
2022-10-07T19:44:09.819Z,14.3
2022-10-07T19:49:23.469Z,14.3
2022-10-07T19:54:06.366Z,14.2
2022-10-07T19:59:19.471Z,14.1
2022-10-07T20:03:49.846Z,14
2022-10-07T20:04:56.530Z,14
2022-10-07T20:08:25.886Z,13.9
2022-10-07T20:09:29.986Z,13.9
2022-10-07T20:17:38.461Z,13.8
2022-10-07T20:22:21.229Z,13.7
2022-10-07T20:27:04.758Z,13.6
2022-10-07T20:44:00.330Z,13.5
2022-10-07T20:45:09.782Z,13.5
2022-10-07T20:49:52.766Z,13.5
2022-10-07T20:54:35.570Z,13.5
2022-10-07T20:59:18.533Z,13.4
2022-10-07T21:04:51.353Z,13.5
2022-10-07T21:13:30.714Z,13.6
2022-10-07T21:14:34.951Z,13.6
2022-10-07T21:18:01.694Z,13.7
2022-10-07T21:23:14.470Z,13.7
2022-10-07T21:24:18.593Z,13.7
2022-10-07T21:32:55.149Z,13.5
2022-10-07T21:33:59.375Z,13.5
2022-10-07T21:37:27.818Z,13.5
2022-10-07T21:42:35.758Z,13.4
2022-10-07T21:43:39.857Z,13.4
2022-10-07T21:59:01.156Z,13.4
2022-10-07T22:05:21.156Z,13.4
2022-10-07T22:10:04.232Z,13.5
2022-10-07T22:15:17.657Z,13.4
2022-10-07T22:19:12.120Z,13.3
2022-10-07T22:20:16.182Z,13.3
2022-10-07T22:24:40.916Z,13.2
2022-10-07T22:25:45.077Z,13.2
2022-10-07T22:31:17.893Z,13.1
2022-10-07T22:40:14.426Z,13.1
2022-10-07T22:41:18.549Z,13.1
2022-10-07T22:44:43.661Z,13.1
2022-10-07T22:49:29.700Z,13.1
2022-10-07T22:54:39.570Z,13.1
2022-10-07T22:55:43.656Z,13.1
2022-10-07T22:59:12.181Z,13.1
2022-10-07T23:00:16.401Z,13
2022-10-07T23:08:26.368Z,13
2022-10-07T23:13:09.165Z,13
2022-10-07T23:25:32.611Z,12.9
2022-10-07T23:26:41.805Z,12.9
2022-10-07T23:31:54.507Z,12.8
2022-10-07T23:37:07.350Z,12.6
2022-10-07T23:42:20.112Z,12.6
2022-10-07T23:47:02.810Z,12.7
2022-10-07T23:52:15.597Z,12.7
2022-10-07T23:56:45.146Z,12.7
